Time,TemperatureF,DewpointF,PressureIn,WindDirection,WindDirectionDegrees,WindSpeedMPH,WindSpeedGustMPH,Humidity,HourlyPrecipIn,Conditions,Clouds,dailyrainin,SoftwareType,DateUTC
2013-02-02 01:22:00,16.0,7.0,30.24,West,279,3.0,10.0,66,0.00,,,0.00,,2013-02-02 06:22:00,
2013-02-02 01:32:00,16.0,7.0,30.24,West,279,3.0,10.0,66,0.00,,,0.00,,2013-02-02 06:32:00,
2013-02-02 01:42:00,16.0,7.0,30.24,West,279,3.0,10.0,66,0.00,,,0.00,,2013-02-02 06:42:00,
2013-02-02 01:52:00,16.0,7.0,30.24,West,279,3.0,10.0,66,0.00,,,0.00,,2013-02-02 06:52:00,
2013-02-02 02:02:00,16.0,7.0,30.24,West,279,3.0,10.0,66,0.00,,,0.00,,2013-02-02 07:02:00,
2013-02-02 03:21:00,15.0,6.0,30.26,West,263,3.0,12.0,66,0.00,,,0.00,,2013-02-02 08:21:00,
2013-02-02 03:32:00,15.0,6.0,30.26,West,263,3.0,12.0,66,0.00,,,0.00,,2013-02-02 08:32:00,
2013-02-02 03:42:00,15.0,6.0,30.26,West,263,3.0,12.0,66,0.00,,,0.00,,2013-02-02 08:42:00,
2013-02-02 03:53:00,15.0,6.0,30.26,West,263,3.0,12.0,66,0.00,,,0.00,,2013-02-02 08:53:00,
2013-02-02 04:01:00,15.0,6.0,30.26,West,263,3.0,12.0,66,0.00,,,0.00,,2013-02-02 09:01:00,
2013-02-02 04:22:00,14.0,5.0,30.24,West,277,4.0,11.0,68,0.00,,,0.00,,2013-02-02 09:22:00,
2013-02-02 04:32:00,14.0,5.0,30.24,West,277,4.0,11.0,68,0.00,,,0.00,,2013-02-02 09:32:00,
2013-02-02 04:42:00,14.0,5.0,30.24,West,277,4.0,11.0,68,0.00,,,0.00,,2013-02-02 09:42:00,
2013-02-02 04:52:00,14.0,5.0,30.24,West,277,4.0,11.0,68,0.00,,,0.00,,2013-02-02 09:52:00,
2013-02-02 05:02:00,14.0,5.0,30.24,West,277,4.0,11.0,68,0.00,,,0.00,,2013-02-02 10:02:00,
2013-02-02 05:21:00,14.0,6.0,30.24,West,268,2.0,5.0,70,0.00,,,0.00,,2013-02-02 10:21:00,
2013-02-02 05:32:00,14.0,6.0,30.24,West,268,2.0,5.0,70,0.00,,,0.00,,2013-02-02 10:32:00,
2013-02-02 05:42:00,14.0,6.0,30.24,West,268,2.0,5.0,70,0.00,,,0.00,,2013-02-02 10:42:00,
2013-02-02 05:52:00,14.0,6.0,30.24,West,268,2.0,5.0,70,0.00,,,0.00,,2013-02-02 10:52:00,
2013-02-02 06:02:00,14.0,6.0,30.24,West,268,2.0,5.0,70,0.00,,,0.00,,2013-02-02 11:02:00,
2013-02-02 06:22:00,14.0,6.0,30.24,WSW,248,0.0,5.0,71,0.00,,,0.00,,2013-02-02 11:22:00,
2013-02-02 06:32:00,14.0,6.0,30.24,WSW,248,0.0,5.0,71,0.00,,,0.00,,2013-02-02 11:32:00,
2013-02-02 06:42:00,14.0,6.0,30.24,WSW,248,0.0,5.0,71,0.00,,,0.00,,2013-02-02 11:42:00,
2013-02-02 06:52:00,14.0,6.0,30.24,WSW,248,0.0,5.0,71,0.00,,,0.00,,2013-02-02 11:52:00,
2013-02-02 07:02:00,14.0,6.0,30.24,WSW,248,0.0,5.0,71,0.00,,,0.00,,2013-02-02 12:02:00,
2013-02-02 07:03:00,14.0,7.0,30.24,WNW,299,1.0,4.0,72,0.00,,,0.00,,2013-02-02 12:03:00,
2013-02-02 07:22:00,14.0,7.0,30.24,WNW,299,1.0,4.0,72,0.00,,,0.00,,2013-02-02 12:22:00,
2013-02-02 07:32:00,14.0,7.0,30.24,WNW,299,1.0,4.0,72,0.00,,,0.00,,2013-02-02 12:32:00,
2013-02-02 07:42:00,14.0,7.0,30.24,WNW,299,1.0,4.0,72,0.00,,,0.00,,2013-02-02 12:42:00,
2013-02-02 07:52:00,14.0,7.0,30.24,WNW,299,1.0,4.0,72,0.00,,,0.00,,2013-02-02 12:52:00,
2013-02-02 08:22:00,14.0,7.0,30.25,SW,235,0.0,5.0,72,0.00,,,0.00,,2013-02-02 13:22:00,
2013-02-02 08:33:00,14.0,7.0,30.25,SW,235,0.0,5.0,72,0.00,,,0.00,,2013-02-02 13:33:00,
2013-02-02 08:42:00,14.0,7.0,30.25,SW,235,0.0,5.0,72,0.00,,,0.00,,2013-02-02 13:42:00,
2013-02-02 08:52:00,14.0,7.0,30.25,SW,235,0.0,5.0,72,0.00,,,0.00,,2013-02-02 13:52:00,
2013-02-02 09:02:00,14.0,7.0,30.25,SW,235,0.0,5.0,72,0.00,,,0.00,,2013-02-02 14:02:00,
2013-02-02 09:22:00,16.0,7.0,30.23,SW,229,2.0,13.0,68,0.00,,,0.00,,2013-02-02 14:22:00,
2013-02-02 09:33:00,16.0,7.0,30.23,SW,229,2.0,13.0,68,0.00,,,0.00,,2013-02-02 14:33:00,
2013-02-02 09:42:00,16.0,7.0,30.23,SW,229,2.0,13.0,68,0.00,,,0.00,,2013-02-02 14:42:00,
2013-02-02 09:52:00,16.0,7.0,30.23,SW,229,2.0,13.0,68,0.00,,,0.00,,2013-02-02 14:52:00,
2013-02-02 10:03:00,16.0,7.0,30.23,SW,229,2.0,13.0,68,0.00,,,0.00,,2013-02-02 15:03:00,
2013-02-02 11:23:00,21.0,9.0,30.21,WSW,253,8.0,15.0,60,0.00,,,0.00,,2013-02-02 16:23:00,
2013-02-02 11:32:00,21.0,9.0,30.21,WSW,253,8.0,15.0,60,0.00,,,0.00,,2013-02-02 16:32:00,
2013-02-02 11:42:00,21.0,9.0,30.21,WSW,253,8.0,15.0,60,0.00,,,0.00,,2013-02-02 16:42:00,
2013-02-02 11:52:00,21.0,9.0,30.21,WSW,253,8.0,15.0,60,0.00,,,0.00,,2013-02-02 16:52:00,
2013-02-02 12:03:00,21.0,9.0,30.21,WSW,253,8.0,15.0,60,0.00,,,0.00,,2013-02-02 17:03:00,
2013-02-02 12:23:00,22.0,10.0,30.18,SW,233,4.0,17.0,58,0.00,,,0.00,,2013-02-02 17:23:00,
2013-02-02 12:33:00,22.0,10.0,30.18,SW,233,4.0,17.0,58,0.00,,,0.00,,2013-02-02 17:33:00,
2013-02-02 12:42:00,22.0,10.0,30.18,SW,233,4.0,17.0,58,0.00,,,0.00,,2013-02-02 17:42:00,
2013-02-02 12:53:00,22.0,10.0,30.18,SW,233,4.0,17.0,58,0.00,,,0.00,,2013-02-02 17:53:00,
2013-02-02 13:02:00,22.0,10.0,30.18,SW,233,4.0,17.0,58,0.00,,,0.00,,2013-02-02 18:02:00,
2013-02-02 15:22:00,24.0,13.0,30.08,SW,236,3.0,7.0,61,0.00,,,0.00,,2013-02-02 20:22:00,
2013-02-02 15:32:00,24.0,13.0,30.08,SW,236,3.0,7.0,61,0.00,,,0.00,,2013-02-02 20:32:00,
2013-02-02 15:42:00,24.0,13.0,30.08,SW,236,3.0,7.0,61,0.00,,,0.00,,2013-02-02 20:42:00,
2013-02-02 15:52:00,24.0,13.0,30.08,SW,236,3.0,7.0,61,0.00,,,0.00,,2013-02-02 20:52:00,
2013-02-02 16:02:00,24.0,13.0,30.08,SW,236,3.0,7.0,61,0.00,,,0.00,,2013-02-02 21:02:00,
2013-02-02 16:22:00,23.0,15.0,30.06,SW,236,0.0,9.0,71,0.00,,,0.00,,2013-02-02 21:22:00,
2013-02-02 16:32:00,23.0,15.0,30.06,SW,236,0.0,9.0,71,0.00,,,0.00,,2013-02-02 21:32:00,
2013-02-02 16:42:00,23.0,15.0,30.06,SW,236,0.0,9.0,71,0.00,,,0.00,,2013-02-02 21:42:00,
2013-02-02 16:52:00,23.0,15.0,30.06,SW,236,0.0,9.0,71,0.00,,,0.00,,2013-02-02 21:52:00,
2013-02-02 17:02:00,23.0,15.0,30.06,SW,236,0.0,9.0,71,0.00,,,0.00,,2013-02-02 22:02:00,
2013-02-02 18:22:00,21.0,17.0,30.03,West,280,0.0,0.0,85,0.00,,,0.00,,2013-02-02 23:22:00,
2013-02-02 18:32:00,21.0,17.0,30.03,West,280,0.0,0.0,85,0.00,,,0.00,,2013-02-02 23:32:00,
2013-02-02 18:42:00,21.0,17.0,30.03,West,280,0.0,0.0,85,0.00,,,0.00,,2013-02-02 23:42:00,
2013-02-02 18:52:00,21.0,17.0,30.03,West,280,0.0,0.0,85,0.00,,,0.00,,2013-02-02 23:52:00,
2013-02-02 19:02:00,21.0,17.0,30.03,West,280,0.0,0.0,85,0.00,,,0.00,,2013-02-03 00:02:00,
2013-02-02 19:22:00,21.0,18.0,30.03,West,280,0.0,0.0,87,0.00,,,0.00,,2013-02-03 00:22:00,
2013-02-02 19:32:00,21.0,18.0,30.03,West,280,0.0,0.0,87,0.00,,,0.00,,2013-02-03 00:32:00,
2013-02-02 19:42:00,21.0,18.0,30.03,West,280,0.0,0.0,87,0.00,,,0.00,,2013-02-03 00:42:00,
2013-02-02 19:52:00,21.0,18.0,30.03,West,280,0.0,0.0,87,0.00,,,0.00,,2013-02-03 00:52:00,
2013-02-02 20:02:00,21.0,18.0,30.03,West,280,0.0,0.0,87,0.00,,,0.00,,2013-02-03 01:02:00,
2013-02-02 20:11:00,22.0,19.0,30.02,West,280,0.0,0.0,89,0.00,,,0.00,,2013-02-03 01:11:00,
2013-02-02 20:21:00,22.0,19.0,30.02,West,280,0.0,0.0,89,0.00,,,0.00,,2013-02-03 01:21:00,
2013-02-02 20:32:00,22.0,19.0,30.02,West,280,0.0,0.0,89,0.00,,,0.00,,2013-02-03 01:32:00,
2013-02-02 20:42:00,22.0,19.0,30.02,West,280,0.0,0.0,89,0.00,,,0.00,,2013-02-03 01:42:00,
2013-02-02 20:52:00,22.0,19.0,30.02,West,280,0.0,0.0,89,0.00,,,0.00,,2013-02-03 01:52:00,
2013-02-02 21:01:00,22.0,19.0,30.02,West,280,0.0,0.0,89,0.00,,,0.00,,2013-02-03 02:01:00,
2013-02-02 22:11:00,22.0,20.0,30.00,West,280,0.0,0.0,91,0.00,,,0.00,,2013-02-03 03:11:00,
2013-02-02 22:22:00,22.0,20.0,30.00,West,280,0.0,0.0,91,0.00,,,0.00,,2013-02-03 03:22:00,
2013-02-02 22:32:00,22.0,20.0,30.00,West,280,0.0,0.0,91,0.00,,,0.00,,2013-02-03 03:32:00,
2013-02-02 22:42:00,22.0,20.0,30.00,West,280,0.0,0.0,91,0.00,,,0.00,,2013-02-03 03:42:00,
2013-02-02 22:52:00,22.0,20.0,30.00,West,280,0.0,0.0,91,0.00,,,0.00,,2013-02-03 03:52:00,
2013-02-02 23:01:00,22.0,20.0,30.00,West,280,0.0,0.0,91,0.00,,,0.00,,2013-02-03 04:01:00,
2013-02-02 23:03:00,22.0,20.0,29.98,West,280,0.0,0.0,92,0.00,,,0.00,,2013-02-03 04:03:00,
2013-02-02 23:22:00,22.0,20.0,29.98,West,280,0.0,0.0,92,0.00,,,0.00,,2013-02-03 04:22:00,
2013-02-02 23:32:00,22.0,20.0,29.98,West,280,0.0,0.0,92,0.00,,,0.00,,2013-02-03 04:32:00,
2013-02-02 23:42:00,22.0,20.0,29.98,West,280,0.0,0.0,92,0.00,,,0.00,,2013-02-03 04:42:00,
2013-02-02 23:52:00,22.0,20.0,29.98,West,280,0.0,0.0,92,0.00,,,0.00,,2013-02-03 04:52:00,